createdAt,value
2019-03-05T00:03:25.613Z,6.32
2019-03-05T00:07:30.815Z,6.35
2019-03-05T00:11:47.347Z,6.42
2019-03-05T00:20:26.397Z,6.39
2019-03-05T00:24:45.672Z,6.31
2019-03-05T00:29:28.900Z,6.31
2019-03-05T00:34:12.214Z,6.30
2019-03-05T00:38:39.203Z,6.31
2019-03-05T00:43:22.413Z,6.24
2019-03-05T00:47:42.686Z,6.23
2019-03-05T00:52:25.969Z,6.14
2019-03-05T00:57:09.271Z,6.18
2019-03-05T01:01:52.546Z,6.11
2019-03-05T01:06:36.078Z,6.04
2019-03-05T01:10:41.200Z,6.00
2019-03-05T01:14:46.435Z,5.89
2019-03-05T01:18:51.689Z,5.73
2019-03-05T01:23:08.516Z,5.58
2019-03-05T01:27:13.713Z,5.47
2019-03-05T01:31:37.788Z,5.31
2019-03-05T01:35:51.145Z,5.27
2019-03-05T01:40:15.230Z,5.11
2019-03-05T01:44:20.342Z,5.17
2019-03-05T01:48:44.616Z,5.04
2019-03-05T01:52:49.775Z,5.01
2019-03-05T01:56:55.022Z,4.92
2019-03-05T02:01:00.203Z,4.95
2019-03-05T02:05:16.582Z,4.97
2019-03-05T02:09:21.760Z,4.97
2019-03-05T02:13:26.912Z,4.98
2019-03-05T02:17:32.054Z,5.04
2019-03-05T02:21:37.255Z,5.05
2019-03-05T02:26:14.565Z,5.05
2019-03-05T02:30:57.771Z,5.02
2019-03-05T02:35:41.315Z,5.00
2019-03-05T02:39:58.378Z,4.95
2019-03-05T02:44:41.621Z,4.95
2019-03-05T02:49:24.898Z,5.01
2019-03-05T02:53:51.589Z,4.99
2019-03-05T02:57:55.042Z,4.99
2019-03-05T03:02:20.751Z,4.89
2019-03-05T03:11:04.231Z,4.88
2019-03-05T03:19:49.378Z,4.88
2019-03-05T03:23:54.515Z,4.93
2019-03-05T03:28:11.113Z,4.85
2019-03-05T03:32:16.293Z,4.84
2019-03-05T03:36:21.356Z,4.79
2019-03-05T03:40:26.561Z,4.67
2019-03-05T03:44:31.713Z,4.53
2019-03-05T03:48:56.003Z,4.56
2019-03-05T03:53:20.992Z,4.59
2019-03-05T03:57:26.110Z,4.71
2019-03-05T04:01:31.410Z,4.67
2019-03-05T04:05:36.631Z,4.75
2019-03-05T04:09:41.727Z,4.82
2019-03-05T04:18:03.442Z,5.08
2019-03-05T04:22:08.613Z,5.10
2019-03-05T04:26:13.739Z,5.13
2019-03-05T04:30:24.307Z,5.25
2019-03-05T04:39:18.238Z,5.30
2019-03-05T04:43:23.429Z,5.25
2019-03-05T04:47:28.497Z,5.38
2019-03-05T04:51:57.158Z,5.33
2019-03-05T04:56:14.279Z,5.44
2019-03-05T05:00:34.553Z,5.36
2019-03-05T05:04:39.961Z,5.31
2019-03-05T05:08:45.428Z,5.35
2019-03-05T05:13:09.548Z,5.29
2019-03-05T05:17:14.751Z,5.17
2019-03-05T05:25:37.281Z,4.89
2019-03-05T05:29:42.516Z,4.74
2019-03-05T05:33:47.768Z,4.65
2019-03-05T05:38:11.881Z,4.50
2019-03-05T05:42:17.094Z,4.47
2019-03-05T05:46:34.574Z,4.50
2019-03-05T05:50:39.758Z,4.56
2019-03-05T05:54:44.891Z,4.51
2019-03-05T05:59:29.566Z,4.39
2019-03-05T06:03:34.687Z,4.24
2019-03-05T06:07:39.954Z,4.13
2019-03-05T06:11:45.195Z,3.94
2019-03-05T06:15:50.395Z,3.81
2019-03-05T06:20:27.505Z,3.71
2019-03-05T06:24:40.515Z,3.68
2019-03-05T06:28:45.622Z,3.71
2019-03-05T06:32:50.871Z,3.67
2019-03-05T06:36:59.103Z,3.65
2019-03-05T06:41:04.578Z,3.66
2019-03-05T06:45:11.536Z,3.61
2019-03-05T06:49:16.875Z,3.63
2019-03-05T06:53:22.121Z,3.65
2019-03-05T06:57:28.251Z,3.61
2019-03-05T07:01:33.334Z,3.57
2019-03-05T07:06:16.713Z,3.52
2019-03-05T07:10:45.732Z,3.52
2019-03-05T07:15:29.558Z,3.46
2019-03-05T07:20:12.865Z,3.47
2019-03-05T07:24:56.216Z,3.43
2019-03-05T07:29:01.374Z,3.43
2019-03-05T07:33:06.562Z,3.55
2019-03-05T07:37:12.485Z,3.63
2019-03-05T07:41:17.991Z,3.62
2019-03-05T07:49:44.050Z,3.69
2019-03-05T07:53:53.003Z,3.73
2019-03-05T07:57:58.248Z,3.75
2019-03-05T08:02:03.570Z,3.80
2019-03-05T08:06:09.251Z,3.81
2019-03-05T08:10:25.773Z,3.94
2019-03-05T08:15:03.471Z,4.06
2019-03-05T08:19:10.290Z,4.18
2019-03-05T08:23:15.496Z,4.30
2019-03-05T08:27:22.292Z,4.40
2019-03-05T08:31:49.189Z,4.49
2019-03-05T08:35:54.432Z,4.58
2019-03-05T08:39:59.910Z,4.58
2019-03-05T08:44:05.208Z,4.69
2019-03-05T08:48:10.343Z,4.77
2019-03-05T08:52:15.457Z,4.83
2019-03-05T08:56:21.058Z,5.05
2019-03-05T09:00:27.040Z,5.12
2019-03-05T09:04:32.528Z,5.31
2019-03-05T09:08:38.552Z,5.36
2019-03-05T09:17:41.884Z,5.84
2019-03-05T09:21:49.280Z,6.24
2019-03-05T09:26:13.457Z,6.13
2019-03-05T09:30:30.813Z,6.45
2019-03-05T09:34:35.959Z,6.53
2019-03-05T09:38:44.014Z,6.89
2019-03-05T09:42:49.176Z,7.19
2019-03-05T09:46:54.411Z,7.14
2019-03-05T09:50:59.634Z,7.14
2019-03-05T09:55:05.207Z,7.29
2019-03-05T09:59:10.658Z,7.18
2019-03-05T10:03:18.340Z,7.17
2019-03-05T10:08:01.049Z,7.37
2019-03-05T10:12:06.331Z,7.40
2019-03-05T10:16:23.249Z,7.00
2019-03-05T10:20:28.678Z,7.00
2019-03-05T10:24:33.818Z,6.84
2019-03-05T10:28:39.288Z,7.16
2019-03-05T10:42:18.304Z,7.96
2019-03-05T10:46:23.401Z,7.96
2019-03-05T10:59:43.332Z,7.47
2019-03-05T11:03:48.716Z,7.73
2019-03-05T11:07:54.047Z,7.84
2019-03-05T11:12:18.249Z,8.30
2019-03-05T11:16:30.712Z,8.37
2019-03-05T11:20:37.971Z,8.70
2019-03-05T11:24:43.185Z,8.91
2019-03-05T11:28:48.423Z,8.26
2019-03-05T11:32:53.838Z,8.31
2019-03-05T11:36:59.112Z,7.64
2019-03-05T11:41:23.337Z,6.40
2019-03-05T11:45:28.792Z,6.40
2019-03-05T11:49:33.846Z,6.68
2019-03-05T11:53:38.976Z,7.26
2019-03-05T11:57:44.121Z,7.72
2019-03-05T12:02:09.824Z,7.93
2019-03-05T12:06:53.392Z,7.80
2019-03-05T12:10:58.546Z,7.80
2019-03-05T12:15:03.973Z,7.91
2019-03-05T12:19:28.086Z,8.59
2019-03-05T12:23:33.293Z,8.58
2019-03-05T12:27:38.482Z,8.60
2019-03-05T12:31:43.996Z,8.87
2019-03-05T12:35:49.187Z,9.22
2019-03-05T12:39:56.005Z,9.54
2019-03-05T12:44:01.299Z,9.57
2019-03-05T12:48:06.461Z,9.13
2019-03-05T12:52:22.827Z,9.38
2019-03-05T12:56:28.367Z,9.66
2019-03-05T13:00:44.999Z,10.40
2019-03-05T13:04:50.199Z,10.14
2019-03-05T13:08:55.412Z,10.08
2019-03-05T13:13:00.712Z,10.09
2019-03-05T13:17:05.857Z,9.57
2019-03-05T13:21:10.966Z,9.15
2019-03-05T13:25:17.019Z,8.93
2019-03-05T13:29:22.238Z,8.67
2019-03-05T13:33:27.403Z,8.99
2019-03-05T13:37:32.631Z,9.55
2019-03-05T13:41:39.588Z,10.61
2019-03-05T13:45:49.528Z,9.64
2019-03-05T13:50:16.119Z,9.48
2019-03-05T13:54:59.320Z,10.55
2019-03-05T13:59:42.631Z,10.73
2019-03-05T14:04:12.283Z,9.43
2019-03-05T14:08:55.561Z,9.31
2019-03-05T14:13:00.659Z,9.55
2019-03-05T14:21:43.078Z,11.05
2019-03-05T14:25:48.188Z,11.52
2019-03-05T14:29:53.777Z,10.81
2019-03-05T14:33:58.883Z,11.48
2019-03-05T14:38:04.248Z,10.43
2019-03-05T14:46:24.938Z,11.94
2019-03-05T14:50:30.184Z,12.23
2019-03-05T14:59:13.636Z,12.25
2019-03-05T15:03:18.773Z,12.62
2019-03-05T15:07:24.104Z,13.58
2019-03-05T15:11:29.785Z,13.23
2019-03-05T15:15:34.938Z,12.78
2019-03-05T15:19:40.228Z,12.83
2019-03-05T15:23:45.379Z,12.73
2019-03-05T15:27:50.606Z,13.22
2019-03-05T15:31:55.699Z,12.93
2019-03-05T15:36:00.901Z,12.97
2019-03-05T15:40:07.616Z,13.41
2019-03-05T15:44:12.850Z,12.98
2019-03-05T15:48:17.942Z,12.90
2019-03-05T15:52:23.015Z,13.59
2019-03-05T15:56:28.107Z,13.25
2019-03-05T16:00:33.304Z,14.07
2019-03-05T16:04:39.345Z,13.99
2019-03-05T16:08:45.216Z,13.46
2019-03-05T16:12:50.404Z,12.81
2019-03-05T16:16:55.570Z,13.12
2019-03-05T16:21:02.427Z,12.59
2019-03-05T16:25:17.364Z,12.17
2019-03-05T16:29:22.775Z,11.53
2019-03-05T16:33:38.610Z,10.51
2019-03-05T16:38:02.873Z,10.11
2019-03-05T16:42:15.351Z,9.57
2019-03-05T16:46:39.523Z,9.39
2019-03-05T16:51:03.707Z,9.22
2019-03-05T16:55:27.856Z,9.09
2019-03-05T16:59:53.254Z,9.12
2019-03-05T17:04:24.157Z,9.01
2019-03-05T17:09:07.320Z,8.86
2019-03-05T17:13:14.225Z,8.73
2019-03-05T17:17:41.101Z,8.41
2019-03-05T17:21:58.125Z,8.41
2019-03-05T17:26:04.834Z,8.32
2019-03-05T17:30:14.754Z,8.13
2019-03-05T17:34:21.030Z,8.08
2019-03-05T17:38:46.606Z,8.01
2019-03-05T17:43:05.845Z,8.01
2019-03-05T17:47:20.742Z,7.93
2019-03-05T17:51:26.493Z,7.81
2019-03-05T17:55:31.708Z,7.76
2019-03-05T17:59:44.316Z,7.54
2019-03-05T18:03:50.432Z,7.54
2019-03-05T18:07:55.628Z,7.61
2019-03-05T18:12:00.974Z,7.64
2019-03-05T18:16:06.269Z,7.58
2019-03-05T18:20:30.556Z,7.36
2019-03-05T18:24:36.112Z,7.36
2019-03-05T18:28:41.409Z,7.38
2019-03-05T18:32:53.513Z,7.30
2019-03-05T18:36:59.632Z,7.25
2019-03-05T18:41:23.911Z,7.17
2019-03-05T18:45:48.103Z,7.11
2019-03-05T18:50:12.289Z,7.07
2019-03-05T18:54:17.545Z,7.08
2019-03-05T18:58:23.202Z,7.04
2019-03-05T19:02:28.374Z,6.91
2019-03-05T19:06:33.527Z,6.91
2019-03-05T19:10:59.475Z,6.87
2019-03-05T19:15:05.154Z,6.69
2019-03-05T19:19:11.947Z,6.58
2019-03-05T19:28:07.470Z,6.63
2019-03-05T19:32:12.621Z,6.54
2019-03-05T19:36:17.892Z,6.53
2019-03-05T19:40:25.409Z,6.45
2019-03-05T19:44:30.601Z,6.48
2019-03-05T19:48:36.035Z,6.44
2019-03-05T19:52:41.232Z,6.39
2019-03-05T19:56:46.372Z,6.34
2019-03-05T20:00:56.013Z,6.28
2019-03-05T20:05:01.304Z,6.30
2019-03-05T20:09:07.245Z,6.33
2019-03-05T20:13:13.999Z,6.38
2019-03-05T20:17:19.080Z,6.34
2019-03-05T20:21:24.248Z,6.35
2019-03-05T20:29:46.509Z,6.18
2019-03-05T20:33:51.812Z,6.17
2019-03-05T20:37:56.928Z,6.10
2019-03-05T20:42:21.277Z,6.18
2019-03-05T20:46:28.110Z,6.08
2019-03-05T20:50:33.433Z,6.01
2019-03-05T20:54:38.603Z,6.00
2019-03-05T20:59:23.221Z,5.93
2019-03-05T21:03:28.877Z,5.88
2019-03-05T21:07:39.340Z,5.95
2019-03-05T21:11:44.439Z,5.95
2019-03-05T21:15:49.630Z,5.97
2019-03-05T21:19:54.728Z,5.95
2019-03-05T21:23:59.910Z,5.96
2019-03-05T21:28:05.212Z,6.10
2019-03-05T21:32:10.404Z,6.19
2019-03-05T21:36:15.636Z,6.23
2019-03-05T21:40:22.589Z,6.18
2019-03-05T21:44:27.782Z,6.17
2019-03-05T21:48:34.769Z,6.26
2019-03-05T21:52:40.038Z,6.28
2019-03-05T21:56:45.202Z,6.35
2019-03-05T22:00:50.439Z,6.51
2019-03-05T22:04:55.669Z,6.50
2019-03-05T22:09:19.842Z,6.56
2019-03-05T22:13:25.012Z,6.57
2019-03-05T22:17:30.652Z,6.47
2019-03-05T22:21:35.820Z,6.54
2019-03-05T22:25:59.755Z,6.58
2019-03-05T22:30:06.219Z,6.58
2019-03-05T22:34:11.875Z,6.58
2019-03-05T22:38:17.246Z,6.71
2019-03-05T22:42:22.344Z,6.65
2019-03-05T22:46:27.552Z,6.63
2019-03-05T22:50:53.421Z,6.80
2019-03-05T22:54:58.541Z,6.88
2019-03-05T22:59:03.710Z,6.92
2019-03-05T23:03:48.608Z,6.84
2019-03-05T23:07:53.792Z,6.85
2019-03-05T23:16:15.962Z,6.82
2019-03-05T23:25:21.796Z,6.90
2019-03-05T23:29:46.249Z,7.04
2019-03-05T23:33:51.694Z,6.82
2019-03-05T23:37:57.140Z,6.82
2019-03-05T23:42:02.491Z,6.82
2019-03-05T23:46:08.036Z,6.70
2019-03-05T23:50:52.657Z,6.68
2019-03-05T23:54:58.267Z,6.45
2019-03-05T23:59:03.431Z,6.44
